PWSweather.com
Personal Weather Stations
Station Observations
PERMAKAI
WaiukuNZ

WaiukuNZ

Lat: -37.22, Lon: 174.77

Elevation: 219.816

Station Type: WH3081

Latest ConditionsUpdated 4:30:00 PM GMT+12:12 Thursday, Jun 27, 2019
Currently Today's Max Today's Min Today's Average
Temperature 57.7°F14.3°C 60.6°F15.9°C 37.4°F3.0°C 47.7°F8.7°C
Dew Point 46.1°F7.8°C 51.4°F10.8°C 37.1°F2.8°C 43.4°F6.3°C
Winds 1.6 mph S2.6 kmh S 3.8 mph -6.1 kmh - - 1.1 mph 1.8 kmh
Wind Gusts 3.1 mph5.0 kmh 6.0 mph9.7 kmh - -
Humidity 65% 99% 60% 87%
Pressure 30.53 in1033.9 mb 30.60 in1036.2 mb 30.52 in1033.5 mb -
Hour Temp Dew Point Humidity Winds Wind Gusts Pressure Precip Precip Rate Daily Precip Total
04:30 PM 57.7°F14.3°C 46.1°F7.8°C 65% 1.6 mph S2.6 kmh S 3.1 mph5.0 kmh 30.53 in1033.9 mb 0.00 in0.0 mm 0.00 in0.0 mm 0.00 in0.0 mm
04:00 PM 57.9°F14.4°C 46.2°F7.9°C 65% 3.1 mph SE5.0 kmh SE 4.5 mph7.2 kmh 30.53 in1033.9 mb 0.00 in0.0 mm 0.00 in0.0 mm 0.00 in0.0 mm
03:30 PM 60.3°F15.7°C 47.2°F8.4°C 62% 2.2 mph SE3.5 kmh SE 3.8 mph6.1 kmh 30.53 in1033.9 mb 0.00 in0.0 mm 0.00 in0.0 mm 0.00 in0.0 mm
03:00 PM 60.6°F15.9°C 46.7°F8.2°C 60% 1.6 mph S2.6 kmh S 3.1 mph5.0 kmh 30.53 in1033.9 mb 0.00 in0.0 mm 0.00 in0.0 mm 0.00 in0.0 mm
02:30 PM 60.3°F15.7°C 46.8°F8.2°C 61% Calm Calm 0.7 mph1.1 kmh 30.53 in1033.9 mb 0.00 in0.0 mm 0.00 in0.0 mm 0.00 in0.0 mm
02:00 PM 60.4°F15.8°C 46.9°F8.3°C 61% 3.8 mph SE6.1 kmh SE 6.0 mph9.7 kmh 30.53 in1033.9 mb 0.00 in0.0 mm 0.00 in0.0 mm 0.00 in0.0 mm
01:30 PM 60.4°F15.8°C 46.9°F8.3°C 61% 3.1 mph S5.0 kmh S 4.5 mph7.2 kmh 30.54 in1034.2 mb 0.00 in0.0 mm 0.00 in0.0 mm 0.00 in0.0 mm
01:00 PM 59.0°F15.0°C 46.8°F8.2°C 64% 2.2 mph SE3.5 kmh SE 4.5 mph7.2 kmh 30.54 in1034.2 mb 0.00 in0.0 mm 0.00 in0.0 mm 0.00 in0.0 mm
12:30 PM 57.4°F14.1°C 46.5°F8.1°C 67% 1.6 mph SE2.6 kmh SE 3.1 mph5.0 kmh 30.55 in1034.5 mb 0.00 in0.0 mm 0.00 in0.0 mm 0.00 in0.0 mm
12:00 PM 56.7°F13.7°C 47.7°F8.7°C 72% 1.6 mph SE2.6 kmh SE 3.8 mph6.1 kmh 30.56 in1034.9 mb 0.00 in0.0 mm 0.00 in0.0 mm 0.00 in0.0 mm
11:30 AM 56.5°F13.6°C 47.6°F8.7°C 72% 2.2 mph SE3.5 kmh SE 3.8 mph6.1 kmh 30.58 in1035.6 mb 0.00 in0.0 mm 0.00 in0.0 mm 0.00 in0.0 mm
11:00 AM 54.1°F12.3°C 47.1°F8.4°C 77% 2.2 mph SE3.5 kmh SE 4.5 mph7.2 kmh 30.58 in1035.6 mb 0.00 in0.0 mm 0.00 in0.0 mm 0.00 in0.0 mm
10:30 AM 52.0°F11.1°C 51.4°F10.8°C 98% 3.8 mph S6.1 kmh S 5.4 mph8.7 kmh 30.59 in1035.9 mb 0.00 in0.0 mm 0.00 in0.0 mm 0.00 in0.0 mm
10:00 AM 47.6°F8.7°C 47.3°F8.5°C 99% 2.2 mph SSE3.5 kmh SSE 3.8 mph6.1 kmh 30.60 in1036.2 mb 0.00 in0.0 mm 0.00 in0.0 mm 0.00 in0.0 mm
09:30 AM 44.2°F6.8°C 43.7°F6.5°C 98% 2.2 mph S3.5 kmh S 3.8 mph6.1 kmh 30.59 in1035.9 mb 0.00 in0.0 mm 0.00 in0.0 mm 0.00 in0.0 mm
09:00 AM 41.5°F5.3°C 41.3°F5.2°C 99% Calm Calm 1.6 mph2.6 kmh 30.58 in1035.6 mb 0.00 in0.0 mm 0.00 in0.0 mm 0.00 in0.0 mm
08:30 AM 39.2°F4.0°C 38.9°F3.8°C 99% 1.6 mph SE2.6 kmh SE 3.1 mph5.0 kmh 30.58 in1035.6 mb 0.00 in0.0 mm 0.00 in0.0 mm 0.00 in0.0 mm
08:00 AM 38.8°F3.8°C 38.6°F3.7°C 99% 1.6 mph SE2.6 kmh SE 3.8 mph6.1 kmh 30.56 in1034.9 mb 0.00 in0.0 mm 0.00 in0.0 mm 0.00 in0.0 mm
07:30 AM 37.6°F3.1°C 37.3°F2.9°C 99% 0.7 mph SE1.1 kmh SE 1.6 mph2.6 kmh 30.56 in1034.9 mb 0.00 in0.0 mm 0.00 in0.0 mm 0.00 in0.0 mm
07:00 AM 37.4°F3.0°C 37.1°F2.8°C 99% 0.7 mph E1.1 kmh E 1.6 mph2.6 kmh 30.55 in1034.5 mb 0.00 in0.0 mm 0.00 in0.0 mm 0.00 in0.0 mm
06:30 AM 38.3°F3.5°C 38.0°F3.3°C 99% Calm Calm -- 30.55 in1034.5 mb 0.00 in0.0 mm 0.00 in0.0 mm 0.00 in0.0 mm
06:00 AM 39.0°F3.9°C 38.8°F3.8°C 99% Calm Calm -- 30.54 in1034.2 mb 0.00 in0.0 mm 0.00 in0.0 mm 0.00 in0.0 mm
05:30 AM 39.7°F4.3°C 39.5°F4.2°C 99% Calm Calm -- 30.54 in1034.2 mb 0.00 in0.0 mm 0.00 in0.0 mm 0.00 in0.0 mm
05:00 AM 41.2°F5.1°C 40.9°F4.9°C 99% Calm Calm -- 30.54 in1034.2 mb 0.00 in0.0 mm 0.00 in0.0 mm 0.00 in0.0 mm
04:30 AM 41.7°F5.4°C 41.5°F5.3°C 99% Calm Calm -- 30.53 in1033.9 mb 0.00 in0.0 mm 0.00 in0.0 mm 0.00 in0.0 mm
04:00 AM 41.7°F5.4°C 41.5°F5.3°C 99% Calm Calm -- 30.53 in1033.9 mb 0.00 in0.0 mm 0.00 in0.0 mm 0.00 in0.0 mm
03:30 AM 41.9°F5.5°C 41.6°F5.3°C 99% Calm Calm -- 30.53 in1033.9 mb 0.00 in0.0 mm 0.00 in0.0 mm 0.00 in0.0 mm
03:00 AM 43.2°F6.2°C 42.6°F5.9°C 98% Calm Calm -- 30.53 in1033.9 mb 0.00 in0.0 mm 0.00 in0.0 mm 0.00 in0.0 mm
02:30 AM 42.8°F6.0°C 42.3°F5.7°C 98% 0.7 mph SE1.1 kmh SE 1.6 mph2.6 kmh 30.53 in1033.9 mb 0.00 in0.0 mm 0.00 in0.0 mm 0.00 in0.0 mm
02:00 AM 42.1°F5.6°C 41.8°F5.4°C 99% Calm Calm -- 30.53 in1033.9 mb 0.00 in0.0 mm 0.00 in0.0 mm 0.00 in0.0 mm
01:30 AM 42.1°F5.6°C 41.8°F5.4°C 99% Calm Calm -- 30.53 in1033.9 mb 0.00 in0.0 mm 0.00 in0.0 mm 0.00 in0.0 mm
01:00 AM 42.1°F5.6°C 41.8°F5.4°C 99% Calm Calm -- 30.52 in1033.5 mb 0.00 in0.0 mm 0.00 in0.0 mm 0.00 in0.0 mm
12:30 AM 42.8°F6.0°C 42.3°F5.7°C 98% Calm Calm -- 30.52 in1033.5 mb 0.00 in0.0 mm 0.00 in0.0 mm 0.00 in0.0 mm
12:00 AM 42.8°F6.0°C 42.3°F5.7°C 98% Calm Calm -- 30.52 in1033.5 mb 0.00 in0.0 mm 0.00 in0.0 mm 0.00 in0.0 mm